Terminal Aerodrome Forecast
Issued by NWS Denver/Boulder, CO

Home | Current Version | Previous Version | Text Only | Print | Product List | Glossary On
Versions: 1 2 3 4 5 6 7 8 9 10 11 12 13 14 15 16 17 18 19 20 21 22 23 24 25 26 27 28 29 30 31 32 33 34 35 36 37 38 39 40 41 42 43 44 45 46 47 48 49 50
659
FTUS45 KBOU 201938 AAB
TAFDEN
TAF AMD
KDEN 201938Z 2020/2124 29014KT P6SM BKN060 OVC120
     FM202200 12018G24KT P6SM VCSH SCT030 BKN050 OVC070
     FM202300 09016G28KT P6SM -RA SCT015 BKN020 OVC050
     FM210300 08010KT 3SM -RASN BR SCT006 OVC012
     FM210600 01006KT 2SM -SN BR OVC003
      TEMPO 2106/2110 3/4SM -SN BR OVC001
     FM211400 34006KT 3SM -RASN SCT006 OVC012
     FM212100 04006KT P6SM SCT015 BKN020=

USA.gov is the U.S. government's official web portal to all federal, state and local government web resources and services.